Mellott, Indiana
Current Conditions -  °F | °C
As of 12:54 AM on Sunday 26 Oct 2014 (Local Time) from KLAF Reporting Station
Clear Clear  
Wind Chill: 54°   Ceiling: Unl
Heat Index: 54°   Visibility: 10mi
Dew Point: 33°   Wind: 6mph
Humidity: 45%   Direction: 300°WNW
Pressure: 29.98"   Gusts: NA
Location:  40.17°N, 87.15°W
Report Text: KLAF 260454Z AUTO 30005KT 10SM CLR 12/01 A2998 RMK AO2 SLP149 T01220006 402280083 TSNO
Loading
Personal Weather Stations






























Interactive Weather Map
Tropical Storm Tracking
New forecast layout! Learn more

10-Day Weather Forecast

Advertisements
Track Severe Weather on mobile